createdAt,value
2022-12-05T00:01:19.586Z,58.72
2022-12-05T00:03:48.221Z,58.60
2022-12-05T00:06:15.380Z,58.77
2022-12-05T00:08:42.267Z,58.75
2022-12-05T00:11:17.455Z,58.54
2022-12-05T00:13:44.939Z,58.77
2022-12-05T00:16:14.344Z,58.74
2022-12-05T00:18:41.380Z,58.85
2022-12-05T00:21:25.269Z,58.67
2022-12-05T00:23:53.580Z,58.60
2022-12-05T00:26:21.011Z,58.83
2022-12-05T00:28:47.879Z,58.79
2022-12-05T00:31:17.105Z,58.78
2022-12-05T00:33:44.658Z,58.83
2022-12-05T00:36:18.425Z,58.89
2022-12-05T00:38:45.386Z,58.84
2022-12-05T00:41:19.016Z,58.90
2022-12-05T00:43:46.516Z,58.89
2022-12-05T00:46:19.120Z,58.89
2022-12-05T00:48:46.604Z,58.99
2022-12-05T00:51:22.729Z,58.88
2022-12-05T00:53:49.559Z,58.90
2022-12-05T00:56:19.051Z,58.99
2022-12-05T00:58:46.241Z,59.05
2022-12-05T01:01:16.384Z,59.08
2022-12-05T01:03:44.427Z,58.91
2022-12-05T01:06:13.676Z,59.04
2022-12-05T01:08:40.668Z,59.00
2022-12-05T01:11:09.152Z,58.98
2022-12-05T01:13:35.915Z,59.03
2022-12-05T01:16:02.766Z,58.95
2022-12-05T01:18:29.658Z,58.87
2022-12-05T01:20:56.334Z,58.99
2022-12-05T01:23:23.045Z,58.94
2022-12-05T01:25:51.880Z,59.05
2022-12-05T01:28:18.872Z,58.97
2022-12-05T01:30:47.586Z,59.11
2022-12-05T01:33:14.245Z,59.01
2022-12-05T01:35:41.908Z,59.03
2022-12-05T01:38:10.098Z,58.97
2022-12-05T01:40:36.651Z,59.03
2022-12-05T01:43:04.457Z,58.90
2022-12-05T01:45:39.847Z,59.15
2022-12-05T01:48:11.100Z,59.06
2022-12-05T01:50:38.164Z,58.99
2022-12-05T01:53:05.556Z,59.16
2022-12-05T01:55:33.575Z,59.02
2022-12-05T01:58:02.155Z,59.21
2022-12-05T02:00:28.978Z,59.13
2022-12-05T02:03:02.549Z,59.13
2022-12-05T02:05:34.471Z,59.17
2022-12-05T02:08:04.304Z,59.18
2022-12-05T02:10:38.236Z,59.32
2022-12-05T02:13:16.663Z,59.36
2022-12-05T02:15:56.836Z,59.25
2022-12-05T02:18:42.407Z,59.21
2022-12-05T02:21:50.416Z,59.38
2022-12-05T02:24:41.700Z,59.35
2022-12-05T02:27:21.159Z,59.31
2022-12-05T02:30:06.395Z,59.22
2022-12-05T02:32:50.704Z,59.32
2022-12-05T02:35:30.757Z,59.23
2022-12-05T02:38:27.776Z,59.27
2022-12-05T02:41:25.404Z,59.41
2022-12-05T02:44:01.971Z,59.13
2022-12-05T02:46:32.213Z,59.23
2022-12-05T02:49:03.542Z,59.35
2022-12-05T02:51:34.601Z,59.21
2022-12-05T02:54:05.372Z,59.58
2022-12-05T02:56:34.482Z,59.38
2022-12-05T02:59:01.597Z,59.45
2022-12-05T03:01:31.788Z,59.48
2022-12-05T03:04:01.589Z,59.60
2022-12-05T03:06:32.212Z,59.54
2022-12-05T03:09:06.803Z,59.72
2022-12-05T03:11:41.279Z,59.61
2022-12-05T03:14:14.147Z,59.64
2022-12-05T03:16:50.595Z,59.70
2022-12-05T03:19:32.424Z,59.52
2022-12-05T03:22:07.120Z,59.74
2022-12-05T03:24:40.559Z,59.68
2022-12-05T03:27:27.928Z,59.81
2022-12-05T03:30:07.757Z,59.76
2022-12-05T03:32:49.079Z,59.82
2022-12-05T03:35:30.916Z,59.71
2022-12-05T03:38:07.676Z,59.97
2022-12-05T03:40:57.451Z,59.91
2022-12-05T03:43:53.550Z,60.01
2022-12-05T03:46:37.770Z,60.04
2022-12-05T03:49:34.667Z,60.02
2022-12-05T03:52:09.296Z,60.16
2022-12-05T03:54:41.351Z,60.16
2022-12-05T03:57:15.309Z,60.20
2022-12-05T03:59:58.366Z,60.24
2022-12-05T04:02:30.633Z,60.11
2022-12-05T04:05:16.456Z,60.22
2022-12-05T04:07:46.373Z,60.21
2022-12-05T04:10:18.398Z,60.38
2022-12-05T04:12:46.886Z,60.05
2022-12-05T04:15:22.513Z,60.36
2022-12-05T04:18:00.601Z,60.47
2022-12-05T04:20:58.012Z,60.47
2022-12-05T04:23:26.504Z,60.37
2022-12-05T04:26:13.027Z,60.50
2022-12-05T04:28:48.772Z,60.49
2022-12-05T04:31:24.364Z,60.61
2022-12-05T04:33:55.301Z,60.47
2022-12-05T04:36:35.963Z,60.63
2022-12-05T04:39:16.122Z,60.47
2022-12-05T04:41:52.823Z,60.56
2022-12-05T04:44:31.817Z,60.75
2022-12-05T04:47:01.920Z,60.61
2022-12-05T04:49:30.900Z,60.64
2022-12-05T04:52:03.763Z,60.71
2022-12-05T04:54:41.820Z,60.75
2022-12-05T04:57:16.620Z,60.67
2022-12-05T04:59:43.565Z,60.72
2022-12-05T05:02:16.242Z,60.54
2022-12-05T05:04:47.215Z,60.64
2022-12-05T05:07:14.910Z,60.80
2022-12-05T05:09:42.008Z,60.75
2022-12-05T05:12:10.502Z,60.65
2022-12-05T05:14:39.766Z,60.79
2022-12-05T05:17:06.429Z,60.74
2022-12-05T05:19:32.983Z,60.79
2022-12-05T05:22:00.358Z,60.91
2022-12-05T05:24:26.861Z,60.80
2022-12-05T05:26:57.277Z,61.01
2022-12-05T05:29:24.434Z,60.85
2022-12-05T05:31:50.926Z,60.82
2022-12-05T05:34:17.546Z,60.77
2022-12-05T05:36:44.171Z,60.91
2022-12-05T05:39:14.175Z,60.98
2022-12-05T05:41:41.295Z,61.14
2022-12-05T05:44:07.875Z,60.87
2022-12-05T05:46:36.104Z,60.75
2022-12-05T05:49:03.457Z,61.04
2022-12-05T05:51:30.401Z,61.18
2022-12-05T05:53:58.756Z,61.05
2022-12-05T05:56:25.656Z,61.05
2022-12-05T05:59:01.279Z,61.12
2022-12-05T06:01:29.154Z,61.00
2022-12-05T06:03:56.071Z,61.00
2022-12-05T06:06:23.888Z,60.94
2022-12-05T06:08:50.400Z,60.96
2022-12-05T06:11:25.237Z,61.15
2022-12-05T06:13:56.272Z,61.10
2022-12-05T06:16:24.781Z,61.09
2022-12-05T06:18:52.379Z,60.83
2022-12-05T06:21:19.188Z,61.12
2022-12-05T06:23:45.856Z,61.08
2022-12-05T06:26:15.352Z,61.07
2022-12-05T06:28:43.092Z,61.29
2022-12-05T06:31:12.750Z,61.17
2022-12-05T06:33:43.592Z,61.25
2022-12-05T06:36:14.712Z,61.12
2022-12-05T06:38:45.734Z,61.20
2022-12-05T06:41:17.974Z,61.26
2022-12-05T06:43:44.545Z,61.19
2022-12-05T06:46:13.206Z,61.04
2022-12-05T06:48:40.201Z,61.18
2022-12-05T06:51:09.617Z,61.19
2022-12-05T06:53:36.168Z,61.27
2022-12-05T06:56:07.400Z,61.17
2022-12-05T06:58:34.020Z,61.25
2022-12-05T07:01:19.021Z,61.30
2022-12-05T07:03:47.610Z,61.26
2022-12-05T07:06:14.519Z,61.21
2022-12-05T07:08:41.519Z,61.39
2022-12-05T07:11:08.411Z,61.44
2022-12-05T07:13:34.939Z,61.44
2022-12-05T07:16:01.489Z,61.52
2022-12-05T07:18:28.147Z,61.43
2022-12-05T07:21:12.201Z,61.51
2022-12-05T07:23:40.467Z,61.26
2022-12-05T07:26:08.737Z,61.48
2022-12-05T07:28:35.261Z,61.50
2022-12-05T07:31:10.027Z,61.55
2022-12-05T07:33:37.393Z,61.53
2022-12-05T07:36:24.089Z,61.40
2022-12-05T07:38:55.860Z,61.62
2022-12-05T07:41:25.523Z,61.42
2022-12-05T07:43:53.757Z,61.54
2022-12-05T07:46:21.147Z,61.55
2022-12-05T07:48:49.036Z,61.60
2022-12-05T07:51:16.659Z,61.69
2022-12-05T07:53:44.311Z,61.59
2022-12-05T07:56:19.099Z,61.21
2022-12-05T07:58:48.520Z,61.45
2022-12-05T08:01:18.055Z,61.50
2022-12-05T08:03:45.119Z,61.41
2022-12-05T08:06:15.071Z,61.74
2022-12-05T08:08:41.915Z,61.58
2022-12-05T08:11:14.524Z,61.44
2022-12-05T08:13:41.442Z,61.49
2022-12-05T08:16:11.309Z,61.46
2022-12-05T08:18:38.416Z,61.59
2022-12-05T08:21:07.589Z,61.53
2022-12-05T08:23:34.942Z,61.65
2022-12-05T08:26:09.830Z,61.51
2022-12-05T08:28:37.601Z,61.58
2022-12-05T08:31:15.961Z,61.41
2022-12-05T08:33:43.216Z,61.42
2022-12-05T08:36:12.852Z,61.71
2022-12-05T08:38:39.975Z,61.39
2022-12-05T08:41:10.383Z,61.58
2022-12-05T08:43:37.072Z,61.53
2022-12-05T08:46:04.626Z,61.82
2022-12-05T08:48:32.943Z,61.81
2022-12-05T08:51:00.189Z,61.97
2022-12-05T08:53:27.513Z,62.05
2022-12-05T08:55:53.963Z,61.99
2022-12-05T08:58:20.548Z,61.83
2022-12-05T09:00:47.047Z,61.87
2022-12-05T09:03:13.584Z,61.79
2022-12-05T09:05:40.128Z,61.91
2022-12-05T09:08:06.782Z,61.90
2022-12-05T09:10:33.798Z,61.77
2022-12-05T09:13:00.267Z,61.70
2022-12-05T09:15:26.808Z,61.90
2022-12-05T09:17:53.376Z,61.54
2022-12-05T09:20:20.050Z,61.62
2022-12-05T09:22:46.579Z,61.69
2022-12-05T09:25:15.483Z,61.56
2022-12-05T09:27:42.076Z,61.61
2022-12-05T09:30:09.356Z,61.44
2022-12-05T09:32:37.243Z,61.47
2022-12-05T09:35:03.944Z,61.45
2022-12-05T09:37:39.093Z,61.33
2022-12-05T09:40:07.864Z,61.19
2022-12-05T09:42:56.365Z,61.29
2022-12-05T09:45:33.614Z,61.42
2022-12-05T09:48:12.616Z,61.23
2022-12-05T09:50:50.063Z,61.19
2022-12-05T09:53:19.315Z,60.98
2022-12-05T09:56:03.836Z,61.07
2022-12-05T09:58:44.140Z,61.18
2022-12-05T10:01:29.205Z,61.10
2022-12-05T10:04:23.029Z,60.97
2022-12-05T10:07:07.324Z,61.02
2022-12-05T10:09:46.648Z,61.08
2022-12-05T10:12:41.107Z,61.06
2022-12-05T10:15:13.476Z,61.05
2022-12-05T10:17:51.169Z,61.07
2022-12-05T10:20:25.513Z,60.91
2022-12-05T10:22:59.636Z,60.94
2022-12-05T10:25:28.162Z,61.15
2022-12-05T10:28:02.787Z,60.93
2022-12-05T10:30:33.280Z,60.75
2022-12-05T10:33:09.186Z,60.95
2022-12-05T10:35:38.082Z,60.90
2022-12-05T10:38:07.662Z,60.98
2022-12-05T10:40:37.524Z,60.94
2022-12-05T10:43:05.827Z,61.13
2022-12-05T10:45:32.476Z,61.10
2022-12-05T10:47:58.982Z,61.38
2022-12-05T10:50:33.800Z,61.26
2022-12-05T10:53:04.008Z,61.30
2022-12-05T10:55:36.219Z,61.32
2022-12-05T10:58:17.769Z,61.09
2022-12-05T11:00:48.180Z,61.13
2022-12-05T11:03:23.099Z,61.18
2022-12-05T11:05:51.284Z,61.07
2022-12-05T11:08:56.058Z,61.04
2022-12-05T11:11:28.491Z,61.02
2022-12-05T11:14:01.826Z,60.92
2022-12-05T11:16:36.550Z,60.70
2022-12-05T11:19:21.455Z,60.50
2022-12-05T11:21:49.668Z,60.64
2022-12-05T11:24:28.943Z,60.72
2022-12-05T11:26:57.284Z,60.68
2022-12-05T11:29:32.771Z,60.63
2022-12-05T11:31:59.498Z,60.86
2022-12-05T11:34:57.215Z,60.66
2022-12-05T11:37:32.239Z,60.54
2022-12-05T11:40:01.679Z,60.52
2022-12-05T11:43:00.480Z,60.46
2022-12-05T11:45:39.433Z,60.19
2022-12-05T11:48:20.844Z,60.39
2022-12-05T11:51:20.023Z,60.53
2022-12-05T11:55:03.430Z,60.44
2022-12-05T11:57:51.817Z,60.38
2022-12-05T12:00:33.845Z,60.19
2022-12-05T12:03:33.344Z,60.31
2022-12-05T12:06:19.800Z,60.22
2022-12-05T12:09:17.935Z,60.00
2022-12-05T12:11:57.516Z,60.09
2022-12-05T12:14:39.093Z,59.82
2022-12-05T12:17:35.897Z,59.91
2022-12-05T12:20:15.946Z,60.14
2022-12-05T12:22:58.339Z,60.16
2022-12-05T12:25:41.926Z,60.06
2022-12-05T12:28:29.460Z,60.22
2022-12-05T12:31:29.684Z,60.10
2022-12-05T12:34:14.849Z,60.03
2022-12-05T12:36:50.482Z,59.97
2022-12-05T12:39:52.304Z,60.13
2022-12-05T12:42:27.150Z,60.07
2022-12-05T12:45:21.069Z,60.29
2022-12-05T12:47:53.452Z,60.17
2022-12-05T12:50:23.144Z,59.92
2022-12-05T12:53:04.557Z,60.24
2022-12-05T12:55:44.912Z,60.11
2022-12-05T12:58:37.492Z,60.13
2022-12-05T13:01:17.683Z,60.04
2022-12-05T13:03:52.025Z,60.23
2022-12-05T13:06:36.726Z,60.46
2022-12-05T13:09:19.165Z,60.16
2022-12-05T13:11:48.582Z,60.30
2022-12-05T13:14:21.044Z,60.49
2022-12-05T13:16:52.080Z,60.30
2022-12-05T13:19:27.779Z,60.47
2022-12-05T13:21:59.555Z,60.50
2022-12-05T13:24:28.845Z,60.18
2022-12-05T13:27:00.643Z,60.25
2022-12-05T13:29:38.368Z,60.36
2022-12-05T13:32:06.970Z,60.59
2022-12-05T13:34:47.895Z,60.35
2022-12-05T13:37:43.071Z,60.24
2022-12-05T13:41:00.100Z,60.62
2022-12-05T13:43:29.161Z,60.28
2022-12-05T13:46:09.763Z,60.46
2022-12-05T13:48:42.007Z,60.42
2022-12-05T13:51:36.277Z,60.15
2022-12-05T13:54:11.732Z,60.50
2022-12-05T13:57:01.386Z,60.63
2022-12-05T14:00:19.768Z,60.36
2022-12-05T14:02:48.719Z,60.54
2022-12-05T14:05:15.263Z,60.50
2022-12-05T14:08:03.761Z,60.54
2022-12-05T14:10:30.957Z,60.70
2022-12-05T14:13:31.158Z,60.42
2022-12-05T14:16:25.911Z,60.53
2022-12-05T14:19:03.161Z,60.78
2022-12-05T14:21:39.606Z,60.55
2022-12-05T14:24:24.263Z,60.76
2022-12-05T14:27:08.226Z,60.76
2022-12-05T14:29:43.784Z,60.79
2022-12-05T14:32:10.298Z,60.66
2022-12-05T14:34:48.249Z,60.79
2022-12-05T14:37:14.746Z,60.61
2022-12-05T14:39:51.670Z,60.80
2022-12-05T14:42:24.459Z,60.58
2022-12-05T14:44:54.126Z,60.69
2022-12-05T14:47:25.358Z,60.94
2022-12-05T14:49:55.529Z,60.85
2022-12-05T14:52:25.039Z,60.83
2022-12-05T14:54:55.209Z,60.87
2022-12-05T14:57:22.991Z,60.83
2022-12-05T14:59:56.181Z,61.01
2022-12-05T15:02:27.278Z,60.91
2022-12-05T15:05:23.487Z,61.02
2022-12-05T15:07:53.837Z,60.95
2022-12-05T15:10:28.384Z,60.92
2022-12-05T15:12:58.856Z,60.85
2022-12-05T15:15:40.491Z,60.79
2022-12-05T15:18:31.708Z,60.98
2022-12-05T15:21:02.855Z,60.95
2022-12-05T15:23:58.775Z,61.00
2022-12-05T15:29:20.470Z,61.01
2022-12-05T15:31:52.854Z,60.92
2022-12-05T15:34:44.019Z,60.84
2022-12-05T15:37:32.489Z,60.80
2022-12-05T15:40:14.782Z,60.85
2022-12-05T15:42:42.329Z,60.95
2022-12-05T15:45:15.635Z,61.23
2022-12-05T15:47:46.747Z,61.08
2022-12-05T15:50:44.002Z,61.04
2022-12-05T15:53:28.432Z,61.13
2022-12-05T15:56:35.935Z,61.20
2022-12-05T15:59:31.140Z,60.95
2022-12-05T16:02:12.649Z,60.87
2022-12-05T16:04:46.677Z,61.09
2022-12-05T16:07:14.856Z,61.18
2022-12-05T16:09:44.324Z,61.13
2022-12-05T16:12:38.523Z,61.03
2022-12-05T16:15:12.426Z,61.11
2022-12-05T16:17:52.714Z,61.21
2022-12-05T16:20:19.366Z,61.00
2022-12-05T16:22:53.124Z,61.11
2022-12-05T16:25:29.787Z,61.28
2022-12-05T16:28:18.144Z,61.32
2022-12-05T16:31:02.703Z,61.06
2022-12-05T16:33:30.702Z,61.33
2022-12-05T16:36:08.394Z,61.22
2022-12-05T16:38:49.626Z,61.21
2022-12-05T16:41:17.042Z,61.39
2022-12-05T16:43:45.839Z,61.31
2022-12-05T16:46:15.407Z,61.34
2022-12-05T16:48:44.469Z,61.38
2022-12-05T16:51:11.025Z,61.60
2022-12-05T16:53:39.300Z,61.19
2022-12-05T16:56:08.098Z,61.51
2022-12-05T16:58:35.796Z,61.46
2022-12-05T17:01:05.709Z,61.57
2022-12-05T17:03:35.225Z,61.46
2022-12-05T17:06:02.344Z,61.29
2022-12-05T17:08:29.109Z,61.52
2022-12-05T17:10:55.877Z,61.35
2022-12-05T17:13:22.721Z,61.50
2022-12-05T17:15:50.057Z,61.53
2022-12-05T17:18:20.629Z,61.48
2022-12-05T17:20:54.354Z,61.69
2022-12-05T17:23:21.164Z,61.71
2022-12-05T17:25:51.305Z,61.72
2022-12-05T17:28:18.323Z,61.61
2022-12-05T17:30:44.966Z,61.76
2022-12-05T17:33:13.945Z,61.60
2022-12-05T17:35:41.076Z,61.75
2022-12-05T17:38:08.405Z,61.43
2022-12-05T17:40:35.067Z,61.72
2022-12-05T17:43:06.028Z,61.84
2022-12-05T17:45:33.906Z,61.52
2022-12-05T17:48:00.421Z,61.83
2022-12-05T17:50:27.827Z,61.77
2022-12-05T17:53:02.786Z,61.69
2022-12-05T17:55:32.361Z,61.97
2022-12-05T17:57:58.907Z,61.86
2022-12-05T18:00:25.477Z,61.75
2022-12-05T18:02:52.634Z,61.67
2022-12-05T18:05:19.974Z,61.70
2022-12-05T18:07:46.921Z,62.02
2022-12-05T18:10:19.237Z,61.71
2022-12-05T18:12:47.288Z,61.94
2022-12-05T18:15:14.813Z,61.91
2022-12-05T18:17:42.251Z,62.07
2022-12-05T18:20:11.034Z,61.96
2022-12-05T18:22:37.559Z,61.90
2022-12-05T18:25:05.261Z,62.14
2022-12-05T18:27:33.547Z,61.85
2022-12-05T18:30:00.013Z,61.79
2022-12-05T18:32:26.568Z,61.96
2022-12-05T18:34:53.553Z,61.89
2022-12-05T18:37:20.130Z,61.98
2022-12-05T18:39:46.663Z,62.05
2022-12-05T18:42:15.294Z,61.99
2022-12-05T18:44:42.235Z,61.95
2022-12-05T18:47:08.866Z,62.34
2022-12-05T18:49:35.430Z,62.32
2022-12-05T18:52:02.102Z,62.51
2022-12-05T18:54:28.611Z,62.54
2022-12-05T18:56:55.054Z,62.38
2022-12-05T18:59:22.362Z,62.49
2022-12-05T19:01:49.909Z,62.48
2022-12-05T19:04:18.906Z,62.67
2022-12-05T19:06:51.904Z,62.80
2022-12-05T19:09:20.987Z,62.75
2022-12-05T19:11:49.846Z,62.73
2022-12-05T19:14:18.893Z,62.55
2022-12-05T19:16:46.531Z,62.89
2022-12-05T19:19:14.687Z,62.64
2022-12-05T19:21:42.109Z,62.77
2022-12-05T19:24:10.755Z,62.71
2022-12-05T19:26:37.494Z,62.70
2022-12-05T19:29:04.966Z,62.99
2022-12-05T19:31:31.992Z,62.75
2022-12-05T19:34:00.879Z,63.00
2022-12-05T19:36:33.206Z,62.96
2022-12-05T19:38:59.799Z,63.09
2022-12-05T19:41:28.447Z,63.04
2022-12-05T19:43:55.635Z,62.83
2022-12-05T19:46:29.696Z,63.08
2022-12-05T19:48:58.327Z,63.05
2022-12-05T19:51:25.119Z,63.04
2022-12-05T19:53:51.673Z,63.04
2022-12-05T19:56:23.218Z,63.19
2022-12-05T19:58:52.203Z,62.91
2022-12-05T20:01:22.232Z,63.19
2022-12-05T20:03:52.151Z,62.98
2022-12-05T20:06:20.595Z,63.08
2022-12-05T20:08:48.303Z,63.01
2022-12-05T20:11:18.096Z,63.08
2022-12-05T20:13:47.034Z,63.11
2022-12-05T20:16:16.298Z,63.12
2022-12-05T20:18:42.931Z,63.13
2022-12-05T20:21:12.758Z,63.37
2022-12-05T20:23:39.590Z,63.38
2022-12-05T20:26:09.716Z,63.21
2022-12-05T20:28:37.026Z,63.49
2022-12-05T20:31:08.904Z,63.33
2022-12-05T20:33:36.839Z,63.47
2022-12-05T20:36:09.605Z,63.52
2022-12-05T20:38:36.461Z,63.28
2022-12-05T20:41:09.402Z,63.44
2022-12-05T20:43:35.925Z,63.81
2022-12-05T20:46:13.240Z,63.79
2022-12-05T20:48:40.687Z,64.09
2022-12-05T20:51:10.166Z,63.97
2022-12-05T20:53:38.944Z,64.22
2022-12-05T20:56:14.746Z,64.02
2022-12-05T20:58:44.646Z,63.93
2022-12-05T21:01:12.856Z,63.92
2022-12-05T21:03:41.909Z,63.84
2022-12-05T21:06:11.219Z,63.92
2022-12-05T21:08:38.242Z,64.05
2022-12-05T21:11:05.890Z,63.89
2022-12-05T21:13:32.640Z,63.73
2022-12-05T21:16:03.144Z,63.94
2022-12-05T21:18:30.510Z,63.97
2022-12-05T21:21:02.313Z,63.78
2022-12-05T21:23:29.014Z,63.96
2022-12-05T21:26:01.960Z,63.95
2022-12-05T21:28:32.655Z,63.70
2022-12-05T21:31:11.556Z,63.62
2022-12-05T21:33:39.424Z,63.87
2022-12-05T21:36:07.014Z,63.67
2022-12-05T21:38:33.601Z,63.53
2022-12-05T21:41:00.346Z,63.58
2022-12-05T21:43:26.841Z,63.43
2022-12-05T21:45:54.418Z,63.42
2022-12-05T21:48:23.152Z,63.53
2022-12-05T21:50:50.454Z,63.45
2022-12-05T21:53:18.007Z,63.48
2022-12-05T21:55:45.035Z,63.65
2022-12-05T21:58:11.867Z,63.22
2022-12-05T22:00:39.179Z,63.44
2022-12-05T22:03:06.402Z,63.22
2022-12-05T22:05:33.715Z,63.21
2022-12-05T22:08:04.838Z,63.47
2022-12-05T22:10:37.260Z,63.64
2022-12-05T22:13:04.723Z,63.34
2022-12-05T22:15:31.365Z,63.43
2022-12-05T22:17:57.897Z,63.40
2022-12-05T22:20:24.399Z,63.46
2022-12-05T22:22:50.931Z,63.30
2022-12-05T22:25:17.412Z,63.51
2022-12-05T22:27:43.975Z,63.68
2022-12-05T22:30:10.855Z,63.53
2022-12-05T22:32:37.418Z,63.78
2022-12-05T22:35:04.595Z,63.44
2022-12-05T22:37:31.695Z,63.44
2022-12-05T22:39:58.910Z,63.55
2022-12-05T22:42:27.281Z,63.55
2022-12-05T22:44:53.700Z,63.63
2022-12-05T22:47:20.243Z,63.29
2022-12-05T22:49:46.747Z,63.21
2022-12-05T22:52:13.280Z,63.48
2022-12-05T22:54:39.798Z,63.40
2022-12-05T22:57:06.393Z,63.36
2022-12-05T22:59:32.874Z,63.53
2022-12-05T23:01:59.626Z,63.60
2022-12-05T23:04:26.260Z,63.48
2022-12-05T23:06:52.930Z,63.41
2022-12-05T23:09:20.514Z,63.68
2022-12-05T23:11:50.219Z,63.51
2022-12-05T23:14:16.734Z,63.71
2022-12-05T23:16:43.400Z,63.39
2022-12-05T23:19:09.978Z,63.48
2022-12-05T23:21:39.364Z,63.37
2022-12-05T23:24:09.807Z,63.44
2022-12-05T23:26:40.269Z,63.52
2022-12-05T23:29:08.622Z,63.67
2022-12-05T23:31:35.312Z,63.58
2022-12-05T23:34:03.859Z,63.60
2022-12-05T23:36:32.367Z,63.51
2022-12-05T23:38:59.031Z,63.50
2022-12-05T23:41:26.279Z,63.59
2022-12-05T23:43:53.571Z,63.55
2022-12-05T23:46:23.746Z,63.72
2022-12-05T23:48:51.277Z,63.39
2022-12-05T23:51:23.996Z,63.41
2022-12-05T23:53:59.001Z,63.61
2022-12-05T23:56:28.299Z,63.27
2022-12-05T23:58:56.255Z,63.58
